Portada
METAR-TAF:

METAR-TAF

Aeroports :

Charleroi, Bèlgica

latitud: 50-28N, longitud: 004-27E, altitud: 187 m

Observació

L'informe es va fer fa 43 minuts, a les 00:50 UTC
Vent 1 kt del Nord/Nord-Oest
Temperatura 12°C
Humitat 88%
Pressió 1017 hPa
Visibilitat 10 km o més
sense núvols per sota de 1500 mi sense presència de cumulonimbus.

METAR: EBCI 170050Z 33001KT CAVOK 12/10 Q1017 NOSIG

Hora: 03:33 (01:33 UTC)

Pronòstic

L'informe es va fer fa 2 hores i 33 minuts, a les 23:00 UTC
Pronòstic vàlid del 17 a les 00 UTC al 18 a les 06 UTC
Vent 3 kt del Nord/Nord-Est
Visibilitat 10 km o més
sense núvols per sota de 1500 mi sense presència de cumulonimbus.
Probabilitat 30% :
Temporalment
l' 17 a les 02 UTC al 17 a les 05 UTC
Visibilitat: 3500 m
boirina, Boira superficial

TAF: EBCI 162300Z 1700/1806 02003KT CAVOK PROB30 TEMPO 1702/1705 3500 BR MIFG

Observacions i pronòstics meteorològics de més de 4000 aeroports (METAR i TAF).

Les estacions disponibles són els punts grocs i vermells al mapa.

Posi el ratolí al punt desitjat per veure el nom de l'estació.

Feu clic per veure les observacions i els pronòstics meteorològics.

Per canviar el mapa: feu clic els botons verds amb una creu de color negre per apropar; al botó verd amb un guió per allunyar la imatge; o en les fletxes verdes per a mapes adjacents.


METAR-TAF: